Time;durP1;ratioP1;P1;durP2;ratioP2;P2;SDS_P1;SDS_P2;PMS_P1;PMS_P2;Temp;Humidity;BMP_temperature;BMP_pressure;BME280_temperature;BME280_humidity;BME280_pressure;Samples;Min_cycle;Max_cycle;Signal;HPM_P1;HPM_P2
2022/06/24 00:04:30;;;;;;;5.07;3.80;;;25.10;36.00;;;;;;10424487;28;20225;-72
2022/06/24 00:09:35;;;;;;;4.30;3.90;;;25.00;36.90;;;;;;10432749;28;20584;-73
2022/06/24 00:14:40;;;;;;;4.90;4.40;;;24.90;37.00;;;;;;10428464;28;20233;-72
2022/06/24 00:19:54;;;;;;;3.77;3.20;;;24.80;37.10;;;;;;10433793;28;20320;-73
2022/06/24 00:25:10;;;;;;;4.17;3.30;;;24.80;37.60;;;;;;10438834;28;20396;-73
2022/06/24 00:30:15;;;;;;;3.20;2.60;;;24.80;37.10;;;;;;10430003;28;20304;-73
2022/06/24 00:35:19;;;;;;;2.73;2.20;;;24.80;36.90;;;;;;10430923;28;20228;-73
2022/06/24 00:40:26;;;;;;;2.83;1.90;;;24.90;37.10;;;;;;10436847;28;20232;-73
2022/06/24 00:45:37;;;;;;;3.23;1.30;;;24.90;37.40;;;;;;10431984;28;20603;-73
2022/06/24 00:50:45;;;;;;;3.23;1.30;;;24.90;37.20;;;;;;10431538;28;20240;-73
2022/06/24 00:55:50;;;;;;;2.03;1.40;;;24.90;36.90;;;;;;10435672;28;20237;-72
2022/06/24 01:00:54;;;;;;;3.67;1.70;;;24.90;37.30;;;;;;10432623;28;20230;-73
2022/06/24 01:05:57;;;;;;;2.30;1.20;;;24.80;37.20;;;;;;10426435;28;20237;-73
2022/06/24 01:11:02;;;;;;;2.73;1.40;;;24.70;37.20;;;;;;10434440;28;20229;-73
2022/06/24 01:16:06;;;;;;;2.03;1.40;;;24.60;38.00;;;;;;10428052;28;20228;-73
2022/06/24 01:21:14;;;;;;;1.50;1.20;;;24.50;37.80;;;;;;10430702;28;20229;-73
2022/06/24 01:26:17;;;;;;;2.70;1.43;;;24.30;37.90;;;;;;10420658;28;20580;-73
2022/06/24 01:31:20;;;;;;;4.40;1.33;;;24.20;38.10;;;;;;10430892;28;20221;-73
2022/06/24 01:36:25;;;;;;;2.07;1.43;;;24.10;38.10;;;;;;10428807;28;20263;-73
2022/06/24 01:41:28;;;;;;;1.90;1.20;;;24.00;38.90;;;;;;10429305;28;20225;-73
2022/06/24 01:46:31;;;;;;;1.60;1.30;;;23.90;38.40;;;;;;10423241;28;20237;-73
2022/06/24 01:51:39;;;;;;;4.17;1.50;;;23.90;38.90;;;;;;10426268;28;20232;-73
2022/06/24 01:56:42;;;;;;;5.43;1.70;;;23.90;39.90;;;;;;10429753;28;20229;-73
2022/06/24 02:01:48;;;;;;;4.90;1.33;;;23.90;39.00;;;;;;10430047;28;20702;-73
2022/06/24 02:06:53;;;;;;;1.83;1.33;;;23.80;39.10;;;;;;10425472;28;20225;-73
2022/06/24 02:17:17;;;;;;;2.23;1.30;;;23.80;39.70;;;;;;10428988;28;20246;-72
2022/06/24 02:22:21;;;;;;;2.17;1.50;;;23.70;39.80;;;;;;10421809;28;20225;-72
2022/06/24 02:27:25;;;;;;;4.33;1.50;;;23.70;39.80;;;;;;10427521;28;20234;-72
2022/06/24 02:32:29;;;;;;;2.37;1.60;;;23.70;39.80;;;;;;10427289;28;20725;-72
2022/06/24 02:37:34;;;;;;;3.80;1.50;;;23.60;39.70;;;;;;10425845;28;20252;-72
2022/06/24 02:42:37;;;;;;;2.23;1.57;;;23.60;40.10;;;;;;10420542;28;20229;-73
2022/06/24 02:47:40;;;;;;;2.43;1.60;;;23.50;39.60;;;;;;10424271;28;20709;-72
2022/06/24 02:52:45;;;;;;;3.33;1.47;;;23.50;39.60;;;;;;10430288;28;20220;-72
2022/06/24 02:57:48;;;;;;;2.57;1.33;;;23.60;40.70;;;;;;10426599;28;20225;-73
2022/06/24 03:02:51;;;;;;;2.03;1.60;;;23.60;39.80;;;;;;10426186;28;20597;-73
2022/06/24 03:07:56;;;;;;;5.07;1.60;;;23.60;40.00;;;;;;10432369;28;20627;-72
2022/06/24 03:12:59;;;;;;;1.97;1.50;;;23.50;40.80;;;;;;10433024;28;20239;-73
2022/06/24 03:18:03;;;;;;;4.17;1.67;;;23.40;40.60;;;;;;10424636;28;20229;-72
2022/06/24 03:23:08;;;;;;;2.27;1.47;;;23.20;40.60;;;;;;10424532;28;20319;-72
2022/06/24 03:28:11;;;;;;;3.10;1.40;;;23.00;41.70;;;;;;10426784;28;20228;-72
2022/06/24 03:33:15;;;;;;;1.43;1.20;;;22.90;41.50;;;;;;10429568;28;20228;-73
2022/06/24 03:38:19;;;;;;;2.37;1.40;;;22.90;41.50;;;;;;10427925;28;20239;-73
2022/06/24 03:43:23;;;;;;;3.17;1.50;;;22.80;42.00;;;;;;10441063;28;20977;-73
2022/06/24 03:48:26;;;;;;;2.67;1.10;;;22.80;41.50;;;;;;10442711;28;20263;-73
2022/06/24 03:53:32;;;;;;;2.50;1.20;;;22.80;41.60;;;;;;10438173;28;20225;-73
2022/06/24 03:58:35;;;;;;;3.50;1.30;;;22.70;42.40;;;;;;10429048;28;20233;-73
2022/06/24 04:03:38;;;;;;;2.67;1.30;;;22.70;41.90;;;;;;10433257;28;20242;-73
2022/06/24 04:08:43;;;;;;;2.40;1.30;;;22.60;41.90;;;;;;10432075;28;20236;-73
2022/06/24 04:13:47;;;;;;;2.20;1.30;;;22.60;42.70;;;;;;10430283;28;20228;-73
2022/06/24 04:18:50;;;;;;;5.87;1.47;;;22.60;42.00;;;;;;10440500;28;21037;-72
2022/06/24 04:23:55;;;;;;;2.20;1.23;;;22.70;42.30;;;;;;10437058;28;20644;-72
2022/06/24 04:28:58;;;;;;;2.17;1.43;;;22.70;42.70;;;;;;10439634;28;20243;-73
2022/06/24 04:34:02;;;;;;;2.27;1.53;;;22.70;42.30;;;;;;10439499;28;20225;-73
2022/06/24 04:39:06;;;;;;;1.90;1.30;;;22.70;42.30;;;;;;10449300;28;20239;-71
2022/06/24 04:44:10;;;;;;;3.00;1.83;;;22.80;42.70;;;;;;10449818;28;20754;-72
2022/06/24 04:49:13;;;;;;;3.10;1.60;;;22.90;42.00;;;;;;10434904;28;20243;-72
2022/06/24 04:54:17;;;;;;;2.83;1.40;;;22.90;42.00;;;;;;10440772;28;20264;-72
2022/06/24 04:59:21;;;;;;;1.47;1.13;;;22.90;42.40;;;;;;10420784;28;20799;-72
2022/06/24 05:04:24;;;;;;;1.30;1.10;;;22.90;41.90;;;;;;10432806;28;20233;-72
2022/06/24 05:09:29;;;;;;;1.83;1.30;;;22.90;41.90;;;;;;10407037;28;20278;-72
2022/06/24 05:14:33;;;;;;;1.70;1.27;;;22.90;42.40;;;;;;10441363;28;20229;-73
2022/06/24 05:19:36;;;;;;;1.87;1.40;;;22.90;42.20;;;;;;10438841;28;20220;-73
2022/06/24 05:24:41;;;;;;;3.30;1.30;;;22.90;42.00;;;;;;10439268;28;20233;-73
2022/06/24 05:29:44;;;;;;;1.70;1.17;;;22.90;42.70;;;;;;10443731;28;20229;-73
2022/06/24 05:34:47;;;;;;;2.00;1.20;;;23.10;42.30;;;;;;10431917;28;20235;-73
2022/06/24 05:39:52;;;;;;;1.77;1.17;;;23.10;42.20;;;;;;10447178;28;20229;-73
2022/06/24 05:44:55;;;;;;;2.47;1.10;;;23.20;42.40;;;;;;10442833;28;20233;-73
2022/06/24 05:49:58;;;;;;;2.50;1.30;;;23.20;42.00;;;;;;10426686;28;20236;-73
2022/06/24 05:55:03;;;;;;;1.90;1.30;;;23.20;42.00;;;;;;10434830;28;20264;-73
2022/06/24 06:00:08;;;;;;;2.73;1.10;;;23.30;42.30;;;;;;10429034;28;20232;-73
2022/06/24 06:05:11;;;;;;;1.70;1.30;;;23.30;42.30;;;;;;10434046;28;20229;-73
2022/06/24 06:10:16;;;;;;;3.10;1.20;;;23.40;42.30;;;;;;10431265;28;20296;-73
2022/06/24 06:15:19;;;;;;;2.57;1.10;;;23.50;42.00;;;;;;10431670;28;20233;-73
2022/06/24 06:20:22;;;;;;;2.67;1.30;;;23.60;41.40;;;;;;10447917;28;20231;-73
2022/06/24 06:25:27;;;;;;;2.50;1.40;;;23.70;41.50;;;;;;10441337;28;20235;-73
2022/06/24 06:30:30;;;;;;;1.37;1.10;;;23.90;41.30;;;;;;10425675;28;20230;-72
2022/06/24 06:35:34;;;;;;;3.17;1.30;;;24.00;41.30;;;;;;10448971;28;20232;-73
2022/06/24 06:40:39;;;;;;;1.40;1.30;;;24.20;41.10;;;;;;10440550;28;20231;-73
2022/06/24 06:45:42;;;;;;;1.40;1.20;;;24.30;40.50;;;;;;10425357;28;20240;-73
2022/06/24 06:50:47;;;;;;;2.00;1.20;;;24.50;40.50;;;;;;10440122;28;20311;-73
2022/06/24 06:55:52;;;;;;;2.10;1.20;;;24.60;40.60;;;;;;10432835;28;20636;-73
2022/06/24 07:00:56;;;;;;;1.83;1.50;;;24.70;40.60;;;;;;10437040;28;20236;-73
2022/06/24 07:05:59;;;;;;;1.60;1.30;;;24.80;40.70;;;;;;10432014;28;20704;-73
2022/06/24 07:11:05;;;;;;;3.33;1.30;;;24.90;40.80;;;;;;10450272;28;20224;-73
2022/06/24 07:16:12;;;;;;;2.43;1.30;;;24.90;40.00;;;;;;10450720;28;20241;-73
2022/06/24 07:21:15;;;;;;;2.73;1.30;;;25.00;39.00;;;;;;10416341;28;20228;-73
2022/06/24 07:26:20;;;;;;;2.03;1.30;;;25.10;39.50;;;;;;10424543;28;20229;-73
2022/06/24 07:31:23;;;;;;;2.90;1.17;;;25.10;39.40;;;;;;10428635;28;20749;-72
2022/06/24 07:36:26;;;;;;;2.30;1.27;;;25.20;39.50;;;;;;10416348;28;20291;-73
2022/06/24 07:41:31;;;;;;;2.77;1.30;;;25.30;39.10;;;;;;10437591;28;20220;-73
2022/06/24 07:46:34;;;;;;;2.10;1.20;;;25.30;38.30;;;;;;10432800;28;20236;-73
2022/06/24 07:51:38;;;;;;;2.47;1.30;;;25.50;38.80;;;;;;10433306;28;20264;-72
2022/06/24 07:56:58;;;;;;;3.20;1.47;;;25.60;38.60;;;;;;10435429;28;20233;-73
2022/06/24 08:02:03;;;;;;;1.60;1.27;;;25.60;38.00;;;;;;10434080;28;20256;-72
2022/06/24 08:07:06;;;;;;;1.30;1.10;;;25.70;37.90;;;;;;10433737;28;20236;-73
2022/06/24 08:12:11;;;;;;;1.80;1.10;;;25.70;38.30;;;;;;10435142;28;20712;-73
2022/06/24 08:17:14;;;;;;;2.47;1.40;;;25.80;38.70;;;;;;10432815;28;20229;-73
2022/06/24 08:22:18;;;;;;;3.90;1.53;;;25.90;38.40;;;;;;10431872;28;20221;-72
2022/06/24 08:27:23;;;;;;;2.57;1.60;;;26.00;38.10;;;;;;10430368;28;20316;-72
2022/06/24 08:32:26;;;;;;;2.57;1.47;;;26.00;37.40;;;;;;10443596;28;20731;-72
2022/06/24 08:37:30;;;;;;;2.80;1.40;;;26.00;37.60;;;;;;10444919;28;20232;-72
2022/06/24 08:42:37;;;;;;;1.53;1.20;;;26.00;38.20;;;;;;10455659;28;20304;-72
2022/06/24 08:47:40;;;;;;;2.47;1.40;;;26.00;38.40;;;;;;10433579;28;20237;-72
2022/06/24 08:52:48;;;;;;;3.57;1.70;;;26.00;38.20;;;;;;10430445;28;20220;-73
2022/06/24 08:57:59;;;;;;;2.37;1.63;;;25.90;39.20;;;;;;10426466;28;20904;-73
2022/06/24 09:03:02;;;;;;;3.77;2.33;;;25.80;39.30;;;;;;10433142;28;20594;-73
2022/06/24 09:08:08;;;;;;;4.20;1.70;;;25.70;39.30;;;;;;10430145;28;20255;-73
2022/06/24 09:13:21;;;;;;;5.03;1.83;;;25.70;39.30;;;;;;10432669;28;20534;-73
2022/06/24 09:18:25;;;;;;;3.17;1.40;;;25.60;39.60;;;;;;10427565;28;20236;-73
2022/06/24 09:23:29;;;;;;;3.73;2.03;;;25.50;39.50;;;;;;10428329;28;20229;-73
2022/06/24 09:28:34;;;;;;;3.20;1.80;;;25.50;39.30;;;;;;10434073;28;20229;-73
2022/06/24 09:33:38;;;;;;;3.23;1.70;;;25.50;39.40;;;;;;10435337;28;20275;-72
2022/06/24 09:38:57;;;;;;;3.37;1.70;;;25.50;39.30;;;;;;10430249;28;20239;-73
2022/06/24 09:44:02;;;;;;;3.07;1.57;;;25.50;39.40;;;;;;10428071;28;20232;-71
2022/06/24 09:49:07;;;;;;;2.97;1.63;;;25.50;39.50;;;;;;10434831;28;20700;-73
2022/06/24 09:54:11;;;;;;;2.87;1.50;;;25.50;39.50;;;;;;10428533;28;20228;-73
2022/06/24 10:04:37;;;;;;;4.10;1.53;;;25.60;39.60;;;;;;10430855;28;20229;-73
2022/06/24 10:09:40;;;;;;;3.20;1.73;;;25.60;39.50;;;;;;10439045;28;20225;-73
2022/06/24 10:14:45;;;;;;;2.63;1.70;;;25.60;39.80;;;;;;10443829;28;20240;-73
2022/06/24 10:19:50;;;;;;;3.33;1.67;;;25.50;40.80;;;;;;10421341;28;20744;-72
2022/06/24 10:24:53;;;;;;;4.37;1.87;;;25.50;40.40;;;;;;10430160;28;20237;-73
2022/06/24 10:29:58;;;;;;;2.70;1.70;;;25.50;40.50;;;;;;10422711;28;20232;-72
2022/06/24 10:35:07;;;;;;;3.40;1.90;;;25.50;41.20;;;;;;10424222;28;20233;-72
2022/06/24 10:40:24;;;;;;;4.00;2.10;;;25.60;41.30;;;;;;10402159;28;20232;-73
2022/06/24 10:45:37;;;;;;;3.27;1.47;;;25.70;41.30;;;;;;10419980;28;20244;-73
2022/06/24 10:50:40;;;;;;;3.80;1.60;;;25.70;40.70;;;;;;10423067;28;20233;-73
2022/06/24 10:55:44;;;;;;;4.67;1.93;;;25.80;40.60;;;;;;10395935;28;20659;-73
2022/06/24 11:00:53;;;;;;;2.50;1.40;;;25.90;40.30;;;;;;10415603;28;20239;-73
2022/06/24 11:05:58;;;;;;;3.40;1.33;;;25.90;40.40;;;;;;10435627;28;20232;-73
2022/06/24 11:11:01;;;;;;;2.10;1.53;;;26.00;39.50;;;;;;10435801;28;20233;-73
2022/06/24 11:16:06;;;;;;;3.13;1.80;;;26.00;39.30;;;;;;10409841;28;20363;-73
2022/06/24 11:21:17;;;;;;;3.47;1.70;;;26.10;39.30;;;;;;10417027;28;20229;-73
2022/06/24 11:26:20;;;;;;;2.43;1.30;;;26.20;38.80;;;;;;10427835;28;20257;-72
2022/06/24 11:31:27;;;;;;;4.07;1.67;;;26.30;38.60;;;;;;10411772;28;20307;-72
2022/06/24 11:36:31;;;;;;;2.63;1.53;;;26.30;38.40;;;;;;10401296;28;20229;-73
2022/06/24 11:41:36;;;;;;;3.77;1.60;;;26.40;38.40;;;;;;10404792;28;20233;-73
2022/06/24 11:46:57;;;;;;;3.10;1.43;;;26.50;38.20;;;;;;10411961;28;20665;-73
2022/06/24 11:52:00;;;;;;;3.03;1.73;;;26.50;38.20;;;;;;10410752;28;20234;-73
2022/06/24 11:57:09;;;;;;;3.20;1.43;;;26.60;38.60;;;;;;10394689;28;20308;-73
2022/06/24 12:02:16;;;;;;;2.47;1.70;;;26.70;38.20;;;;;;10430230;28;20259;-73
2022/06/24 12:07:20;;;;;;;1.70;1.60;;;26.70;38.00;;;;;;10433271;28;20920;-73
2022/06/24 12:12:24;;;;;;;2.93;1.70;;;26.80;38.00;;;;;;10438442;28;20789;-73
2022/06/24 12:17:29;;;;;;;2.53;1.73;;;26.90;37.80;;;;;;10436544;28;20228;-73
2022/06/24 12:22:33;;;;;;;3.17;1.73;;;26.90;38.60;;;;;;10426412;28;20313;-73
2022/06/24 12:27:37;;;;;;;2.17;1.80;;;26.90;37.60;;;;;;10423196;28;20264;-73
2022/06/24 12:32:55;;;;;;;3.10;2.00;;;26.90;37.50;;;;;;10441597;28;20237;-73
2022/06/24 12:37:59;;;;;;;4.07;1.57;;;27.00;37.50;;;;;;10422481;28;20239;-73
2022/06/24 12:43:07;;;;;;;3.73;1.57;;;27.00;37.10;;;;;;10436688;28;20240;-73
2022/06/24 12:53:33;;;;;;;1.93;1.33;;;27.20;36.80;;;;;;10433477;28;20243;-73
2022/06/24 12:58:36;;;;;;;2.77;1.70;;;27.30;36.70;;;;;;10434891;28;20233;-73
2022/06/24 13:03:41;;;;;;;2.43;1.60;;;27.40;36.70;;;;;;10429150;28;20221;-74
2022/06/24 13:08:44;;;;;;;2.90;1.70;;;27.40;36.50;;;;;;10426257;28;20240;-73
2022/06/24 13:13:47;;;;;;;2.90;1.80;;;27.60;36.80;;;;;;10439296;28;20222;-73
2022/06/24 13:18:52;;;;;;;1.87;1.50;;;27.60;36.30;;;;;;10430967;28;20238;-73
2022/06/24 13:23:55;;;;;;;4.10;1.60;;;27.60;35.50;;;;;;10428439;28;20232;-74
2022/06/24 13:28:58;;;;;;;3.60;1.70;;;27.70;35.60;;;;;;10441180;28;20233;-73
2022/06/24 13:34:03;;;;;;;2.73;1.50;;;27.70;36.20;;;;;;10423741;28;20297;-73
2022/06/24 13:39:06;;;;;;;1.63;1.43;;;27.70;34.90;;;;;;10431303;28;20241;-73
2022/06/24 13:44:10;;;;;;;1.87;1.60;;;27.80;35.40;;;;;;10433308;28;20235;-73
2022/06/24 13:49:14;;;;;;;3.20;1.70;;;27.80;34.70;;;;;;10430612;28;20248;-73
2022/06/24 13:54:17;;;;;;;4.27;1.60;;;27.80;34.50;;;;;;10424393;28;20217;-74
2022/06/24 13:59:21;;;;;;;2.90;1.60;;;27.80;35.00;;;;;;10433238;28;20232;-74
2022/06/24 14:04:26;;;;;;;4.13;1.67;;;27.80;34.60;;;;;;10434194;28;20229;-76
2022/06/24 14:09:29;;;;;;;2.63;1.53;;;27.70;34.40;;;;;;10430045;28;20230;-76
2022/06/24 14:14:34;;;;;;;2.80;1.60;;;27.60;34.70;;;;;;10427580;28;20220;-75
2022/06/24 14:19:39;;;;;;;1.97;1.87;;;27.50;35.00;;;;;;10439904;28;20233;-75
2022/06/24 14:24:42;;;;;;;5.27;1.90;;;27.40;34.70;;;;;;10424251;28;20220;-73
2022/06/24 14:29:45;;;;;;;2.30;1.60;;;27.40;34.90;;;;;;10445284;28;20232;-73
2022/06/24 14:34:50;;;;;;;2.43;1.60;;;27.30;35.40;;;;;;10426387;28;20225;-74
2022/06/24 14:45:34;;;;;;;2.67;1.40;;;27.20;35.50;;;;;;10415169;28;20233;-74
2022/06/24 14:50:39;;;;;;;2.70;1.40;;;27.10;34.30;;;;;;10428559;28;20224;-73
2022/06/24 14:55:42;;;;;;;2.03;1.53;;;26.90;34.30;;;;;;10421106;28;20225;-73
2022/06/24 15:00:45;;;;;;;3.13;1.40;;;26.70;34.60;;;;;;10422508;28;20283;-73
2022/06/24 15:05:52;;;;;;;2.07;1.40;;;26.50;35.30;;;;;;10418382;28;20235;-73
2022/06/24 15:10:55;;;;;;;3.17;1.40;;;26.30;35.40;;;;;;10421542;28;20854;-74
2022/06/24 15:15:58;;;;;;;2.27;1.30;;;26.10;35.60;;;;;;10418505;28;20260;-73
2022/06/24 15:21:03;;;;;;;1.53;1.40;;;25.90;36.10;;;;;;10418690;28;20841;-74
2022/06/24 15:26:16;;;;;;;4.40;1.90;;;25.80;37.20;;;;;;10423304;28;20239;-75
2022/06/24 15:31:20;;;;;;;3.13;1.80;;;25.80;36.70;;;;;;10417695;28;20234;-73
2022/06/24 15:36:25;;;;;;;2.77;1.80;;;25.70;36.70;;;;;;10423046;28;20684;-74
2022/06/24 15:41:29;;;;;;;3.80;1.87;;;25.70;38.10;;;;;;10424280;28;20720;-73
2022/06/24 15:46:32;;;;;;;4.47;1.83;;;25.80;37.50;;;;;;10429225;28;20458;-74
2022/06/24 15:51:37;;;;;;;3.83;1.87;;;25.80;37.60;;;;;;10426398;28;20245;-74
2022/06/24 15:56:40;;;;;;;2.17;1.70;;;25.80;38.10;;;;;;10421020;28;20233;-74
2022/06/24 16:01:43;;;;;;;3.77;2.00;;;25.80;37.90;;;;;;10429840;28;20232;-74
2022/06/24 16:06:48;;;;;;;3.27;1.90;;;25.70;37.80;;;;;;10423049;28;20231;-73
2022/06/24 16:17:12;;;;;;;3.13;2.10;;;25.40;38.30;;;;;;10425715;28;20275;-73
2022/06/24 16:22:18;;;;;;;2.13;1.87;;;25.40;38.40;;;;;;10423599;28;20651;-74
2022/06/24 16:32:42;;;;;;;4.70;1.90;;;25.00;38.80;;;;;;10426258;28;20229;-73
2022/06/24 16:37:47;;;;;;;2.17;1.70;;;24.80;38.80;;;;;;10424730;28;20225;-74
2022/06/24 16:48:11;;;;;;;1.90;1.50;;;24.50;39.60;;;;;;10421103;28;21128;-74
2022/06/24 16:53:15;;;;;;;2.30;1.60;;;24.50;39.60;;;;;;10423343;28;20721;-73
2022/06/24 16:58:19;;;;;;;2.53;1.60;;;24.40;39.90;;;;;;10422411;28;20728;-73
2022/06/24 17:03:28;;;;;;;4.47;1.80;;;24.40;39.50;;;;;;10425689;28;20228;-73
2022/06/24 17:08:34;;;;;;;2.30;1.60;;;24.40;40.10;;;;;;10427810;28;20818;-74
2022/06/24 17:13:37;;;;;;;2.97;1.50;;;24.50;39.40;;;;;;10425134;28;20214;-73
2022/06/24 17:18:40;;;;;;;1.77;1.40;;;24.50;38.70;;;;;;10436180;28;20229;-73
2022/06/24 17:23:45;;;;;;;3.00;1.53;;;24.60;38.70;;;;;;10431092;28;20229;-72
2022/06/24 17:28:49;;;;;;;3.50;1.70;;;24.60;38.70;;;;;;10437107;28;20239;-72
2022/06/24 17:33:53;;;;;;;3.97;1.60;;;24.60;38.40;;;;;;10427828;28;20312;-72
2022/06/24 17:38:58;;;;;;;4.90;1.63;;;24.60;38.40;;;;;;10431481;28;20233;-73
2022/06/24 17:44:01;;;;;;;2.37;1.37;;;24.60;38.10;;;;;;10424457;28;20263;-72
2022/06/24 17:49:04;;;;;;;3.30;1.80;;;24.50;38.20;;;;;;10428797;28;20233;-72
2022/06/24 17:54:09;;;;;;;2.93;1.50;;;24.50;38.40;;;;;;10430497;28;20221;-72
2022/06/24 17:59:12;;;;;;;3.07;1.40;;;24.50;38.50;;;;;;10427456;28;20230;-72
2022/06/24 18:04:15;;;;;;;3.70;1.77;;;24.30;38.60;;;;;;10439169;28;20701;-73
2022/06/24 18:09:20;;;;;;;2.97;1.70;;;24.30;38.90;;;;;;10431341;28;20341;-73
2022/06/24 18:14:23;;;;;;;2.20;1.63;;;24.20;39.30;;;;;;10437800;28;20232;-72
2022/06/24 18:19:26;;;;;;;2.43;1.70;;;24.10;39.40;;;;;;10434579;28;20239;-73
2022/06/24 18:24:31;;;;;;;2.37;1.40;;;24.10;39.80;;;;;;10436456;28;20613;-72
2022/06/24 18:29:34;;;;;;;2.80;1.60;;;24.00;40.00;;;;;;10440280;28;20224;-72
2022/06/24 18:34:37;;;;;;;3.50;1.80;;;23.90;40.60;;;;;;10434081;28;20710;-73
2022/06/24 18:39:42;;;;;;;3.47;1.87;;;23.90;39.90;;;;;;10432326;28;20243;-73
2022/06/24 18:44:47;;;;;;;7.77;1.90;;;23.90;39.90;;;;;;10428554;28;20283;-72
2022/06/24 18:49:56;;;;;;;2.90;2.07;;;23.90;39.90;;;;;;10396646;28;20316;-73
2022/06/24 18:55:01;;;;;;;2.70;2.10;;;23.90;39.90;;;;;;10413540;28;20610;-73
2022/06/24 19:00:05;;;;;;;4.57;2.07;;;23.80;39.90;;;;;;10410523;28;20216;-73
2022/06/24 19:05:09;;;;;;;3.93;2.00;;;23.80;39.80;;;;;;10413871;28;20225;-73
2022/06/24 19:10:14;;;;;;;2.27;1.80;;;23.70;39.80;;;;;;10415563;28;20713;-74
2022/06/24 19:15:18;;;;;;;3.17;1.40;;;23.60;39.70;;;;;;10423469;28;20243;-73
2022/06/24 19:20:21;;;;;;;3.03;1.20;;;23.40;39.50;;;;;;10406489;28;20233;-72
2022/06/24 19:25:26;;;;;;;4.13;1.10;;;23.30;39.50;;;;;;10424877;28;20233;-73
2022/06/24 19:30:30;;;;;;;1.03;0.97;;;23.10;39.80;;;;;;10419935;28;20237;-73
2022/06/24 19:35:33;;;;;;;1.50;1.00;;;22.80;40.10;;;;;;10417354;28;20232;-72
2022/06/24 19:40:41;;;;;;;1.10;1.00;;;22.60;40.20;;;;;;10415176;28;20225;-72
2022/06/24 19:45:44;;;;;;;1.00;1.00;;;22.50;40.50;;;;;;10418167;28;20237;-72
2022/06/24 19:50:48;;;;;;;1.10;0.80;;;22.30;40.20;;;;;;10419690;28;20241;-73
2022/06/24 19:55:52;;;;;;;0.90;0.70;;;22.20;40.20;;;;;;10405048;28;20241;-72
2022/06/24 20:00:56;;;;;;;1.57;0.70;;;22.00;40.60;;;;;;10412029;28;20317;-72
2022/06/24 20:05:59;;;;;;;0.60;0.60;;;21.80;40.50;;;;;;10423473;28;20237;-72
2022/06/24 20:11:10;;;;;;;0.50;0.50;;;21.80;40.60;;;;;;10419360;28;20236;-73
2022/06/24 20:16:13;;;;;;;0.90;0.70;;;21.70;40.60;;;;;;10417313;28;21613;-72
2022/06/24 20:21:16;;;;;;;0.50;0.50;;;21.60;40.50;;;;;;10424302;28;20225;-72
2022/06/24 20:26:21;;;;;;;0.40;0.40;;;21.50;40.60;;;;;;10430152;28;20224;-72
2022/06/24 20:31:24;;;;;;;0.63;0.60;;;21.40;41.00;;;;;;10418615;28;20232;-72
2022/06/24 20:36:28;;;;;;;0.50;0.50;;;21.30;41.10;;;;;;10429533;28;20237;-72
2022/06/24 20:41:32;;;;;;;0.50;0.50;;;21.10;41.50;;;;;;10427954;28;20221;-72
2022/06/24 20:46:38;;;;;;;0.50;0.50;;;21.10;41.90;;;;;;10427786;28;20235;-72
2022/06/24 20:51:42;;;;;;;0.70;0.70;;;21.00;41.60;;;;;;10433221;28;20725;-73
2022/06/24 20:56:47;;;;;;;0.50;0.50;;;21.00;41.80;;;;;;10434532;28;20247;-73
2022/06/24 21:01:50;;;;;;;1.80;0.90;;;21.00;42.10;;;;;;10435901;28;20229;-73
2022/06/24 21:06:53;;;;;;;1.57;0.70;;;20.90;41.80;;;;;;10435117;28;21160;-74
2022/06/24 21:11:58;;;;;;;1.37;0.60;;;20.80;41.90;;;;;;10436153;28;20233;-74
2022/06/24 21:17:01;;;;;;;0.50;0.50;;;20.70;42.50;;;;;;10437144;28;20232;-74
2022/06/24 21:22:05;;;;;;;0.73;0.73;;;20.60;42.40;;;;;;10439874;28;20229;-73
2022/06/24 21:27:10;;;;;;;1.40;0.70;;;20.40;42.80;;;;;;10428897;28;20604;-74
2022/06/24 21:32:13;;;;;;;0.70;0.70;;;20.30;43.40;;;;;;10424130;28;20319;-74
2022/06/24 21:37:16;;;;;;;0.60;0.60;;;20.30;43.10;;;;;;10413427;28;20225;-73
2022/06/24 21:42:21;;;;;;;1.17;0.80;;;20.20;43.30;;;;;;10416800;28;20311;-73
2022/06/24 21:47:25;;;;;;;2.60;0.90;;;20.20;44.00;;;;;;10420717;28;20241;-73
2022/06/24 21:52:29;;;;;;;0.70;0.60;;;20.10;44.00;;;;;;10414812;28;20415;-73
2022/06/24 21:57:34;;;;;;;1.43;0.70;;;20.00;43.80;;;;;;10416739;28;20228;-73
2022/06/24 22:02:37;;;;;;;1.37;0.90;;;19.90;44.70;;;;;;10418241;28;20721;-73
2022/06/24 22:07:40;;;;;;;2.10;1.10;;;19.90;44.30;;;;;;10414723;28;20236;-73
2022/06/24 22:12:45;;;;;;;2.10;1.00;;;19.90;45.10;;;;;;10417573;28;20229;-73
2022/06/24 22:17:51;;;;;;;1.20;0.70;;;19.80;45.20;;;;;;10414721;28;20248;-73
2022/06/24 22:22:54;;;;;;;0.80;0.80;;;19.80;45.60;;;;;;10419834;28;20221;-73
2022/06/24 22:27:59;;;;;;;1.00;0.90;;;19.70;44.90;;;;;;10421026;28;20235;-73
2022/06/24 22:33:02;;;;;;;0.80;0.80;;;19.70;45.60;;;;;;10420183;28;20228;-73
2022/06/24 22:38:06;;;;;;;1.10;1.00;;;19.60;45.20;;;;;;10416962;28;20818;-73
2022/06/24 22:43:11;;;;;;;0.97;0.80;;;19.60;45.40;;;;;;10422783;28;20237;-73
2022/06/24 22:48:14;;;;;;;0.80;0.80;;;19.60;46.20;;;;;;10415120;28;20771;-73
2022/06/24 22:53:17;;;;;;;2.20;0.80;;;19.60;45.70;;;;;;10423029;28;20236;-74
2022/06/24 22:58:22;;;;;;;0.80;0.70;;;19.60;45.60;;;;;;10416063;28;20225;-73
2022/06/24 23:03:26;;;;;;;3.90;0.70;;;19.60;46.30;;;;;;10416489;28;20728;-74
2022/06/24 23:08:29;;;;;;;0.80;0.80;;;19.60;45.60;;;;;;10416185;28;20644;-74
2022/06/24 23:13:34;;;;;;;0.83;0.80;;;19.60;45.90;;;;;;10421001;28;20236;-73
2022/06/24 23:18:37;;;;;;;0.70;0.70;;;19.60;46.50;;;;;;10418128;28;20992;-73
2022/06/24 23:23:42;;;;;;;0.93;0.93;;;19.60;45.80;;;;;;10420982;28;21180;-73
2022/06/24 23:28:47;;;;;;;1.03;1.03;;;19.60;45.80;;;;;;10420083;28;20239;-73
2022/06/24 23:33:50;;;;;;;0.83;0.80;;;19.60;46.40;;;;;;10408900;28;20229;-73
2022/06/24 23:38:54;;;;;;;1.83;1.00;;;19.60;46.00;;;;;;10415693;28;20237;-73
2022/06/24 23:43:58;;;;;;;0.90;0.90;;;19.50;46.00;;;;;;10417638;28;20231;-73
2022/06/24 23:54:22;;;;;;;0.80;0.80;;;19.50;46.20;;;;;;10424877;28;20239;-73
2022/06/24 23:59:27;;;;;;;0.90;0.90;;;19.50;46.40;;;;;;10420279;28;20271;-73
